Time;durP1;ratioP1;P1;durP2;ratioP2;P2;SDS_P1;SDS_P2;PMS_P1;PMS_P2;Temp;Humidity;BMP_temperature;BMP_pressure;BME280_temperature;BME280_humidity;BME280_pressure;Samples;Min_cycle;Max_cycle;Signal;HPM_P1;HPM_P2
2023/08/06 00:00:00;;;;;;;9.73;5.97;;;15.60;83.20;;;;;;5091511;28;20820;-73
2023/08/06 00:02:27;;;;;;;10.63;5.75;;;15.60;83.20;;;;;;5050568;28;20529;-72
2023/08/06 00:04:54;;;;;;;8.38;5.25;;;15.60;83.20;;;;;;5084569;28;20056;-73
2023/08/06 00:07:23;;;;;;;10.43;5.55;;;15.60;83.20;;;;;;5085697;28;20085;-72
2023/08/06 00:09:50;;;;;;;9.57;5.60;;;15.60;83.20;;;;;;5070763;28;20088;-72
2023/08/06 00:12:17;;;;;;;10.02;5.93;;;15.60;83.20;;;;;;5043692;28;20137;-73
2023/08/06 00:14:44;;;;;;;8.10;5.05;;;15.60;83.30;;;;;;5078760;28;20053;-72
2023/08/06 00:17:12;;;;;;;13.23;5.70;;;15.60;83.30;;;;;;5086416;28;20045;-73
2023/08/06 00:19:38;;;;;;;7.50;5.25;;;15.60;83.20;;;;;;5052692;28;20063;-72
2023/08/06 00:22:08;;;;;;;8.80;5.70;;;15.60;83.20;;;;;;5086288;28;20565;-73
2023/08/06 00:24:37;;;;;;;8.18;5.30;;;15.60;83.20;;;;;;5047624;28;20056;-72
2023/08/06 00:27:05;;;;;;;8.15;5.03;;;15.60;83.20;;;;;;5052602;28;20049;-72
2023/08/06 00:29:32;;;;;;;8.85;5.38;;;15.60;83.20;;;;;;5036047;28;20047;-72
2023/08/06 00:31:59;;;;;;;10.00;5.35;;;15.60;83.20;;;;;;5082950;28;20439;-73
2023/08/06 00:34:26;;;;;;;9.47;5.13;;;15.60;83.30;;;;;;5068845;28;20049;-72
2023/08/06 00:36:54;;;;;;;9.02;5.22;;;15.60;83.30;;;;;;5052536;28;20049;-72
2023/08/06 00:39:21;;;;;;;8.60;5.13;;;15.60;83.30;;;;;;5067489;28;20851;-73
2023/08/06 00:41:50;;;;;;;8.32;5.10;;;15.60;83.30;;;;;;5051273;28;20115;-72
2023/08/06 00:44:17;;;;;;;7.93;4.78;;;15.60;83.30;;;;;;5067595;28;20102;-72
2023/08/06 00:46:44;;;;;;;8.30;4.73;;;15.60;83.20;;;;;;5063773;28;20134;-72
2023/08/06 00:49:11;;;;;;;8.57;4.65;;;15.60;83.30;;;;;;5035387;28;20084;-72
2023/08/06 00:51:39;;;;;;;8.75;4.93;;;15.50;83.30;;;;;;5063526;28;20045;-72
2023/08/06 00:54:06;;;;;;;7.90;4.82;;;15.50;83.40;;;;;;5052330;28;20052;-73
2023/08/06 00:56:35;;;;;;;7.80;5.40;;;15.50;83.40;;;;;;5052046;28;20053;-72
2023/08/06 00:59:04;;;;;;;8.80;4.80;;;15.50;83.40;;;;;;5051467;28;20051;-72
2023/08/06 01:01:31;;;;;;;8.70;5.05;;;15.50;83.40;;;;;;5051816;28;20059;-73
2023/08/06 01:03:58;;;;;;;9.90;5.35;;;15.50;83.40;;;;;;5052022;28;20045;-72
2023/08/06 01:06:41;;;;;;;8.98;5.28;;;15.50;83.50;;;;;;5050404;28;20140;-73
2023/08/06 01:09:19;;;;;;;7.55;4.72;;;15.50;83.50;;;;;;5038946;28;21049;-72
2023/08/06 01:11:55;;;;;;;8.57;5.03;;;15.50;83.60;;;;;;5034920;28;20099;-72
2023/08/06 01:14:31;;;;;;;7.65;4.50;;;15.50;83.50;;;;;;5068697;28;20693;-72
2023/08/06 01:17:00;;;;;;;8.20;4.75;;;15.50;83.50;;;;;;5051891;28;20060;-72
2023/08/06 01:19:27;;;;;;;9.00;4.88;;;15.40;83.50;;;;;;5044078;28;20136;-72
2023/08/06 01:21:55;;;;;;;7.80;4.90;;;15.40;83.50;;;;;;5069713;28;20045;-73
2023/08/06 01:24:23;;;;;;;7.87;4.60;;;15.40;83.60;;;;;;5040765;28;20132;-73
2023/08/06 01:26:58;;;;;;;8.73;4.32;;;15.40;83.50;;;;;;5050192;28;20080;-72
2023/08/06 01:29:31;;;;;;;7.90;4.72;;;15.40;83.60;;;;;;5062767;28;20140;-73
2023/08/06 01:31:59;;;;;;;8.82;4.90;;;15.40;83.50;;;;;;5064795;28;20073;-72
2023/08/06 01:34:29;;;;;;;8.27;4.68;;;15.40;83.50;;;;;;5064664;28;20800;-73
2023/08/06 01:36:57;;;;;;;10.37;4.70;;;15.30;83.40;;;;;;5067910;28;20055;-73
2023/08/06 01:39:24;;;;;;;8.05;4.55;;;15.30;83.40;;;;;;5049701;28;20057;-72
2023/08/06 01:41:51;;;;;;;7.57;4.50;;;15.30;83.30;;;;;;5066466;28;20876;-72
2023/08/06 01:44:19;;;;;;;8.50;4.30;;;15.30;83.30;;;;;;5034274;28;20812;-72
2023/08/06 01:46:46;;;;;;;7.55;4.13;;;15.30;83.20;;;;;;5037539;28;20165;-73
2023/08/06 01:49:13;;;;;;;8.70;4.20;;;15.20;83.20;;;;;;5064323;28;20084;-73
2023/08/06 01:51:40;;;;;;;7.53;4.97;;;15.20;83.30;;;;;;5050933;28;20143;-73
2023/08/06 01:54:08;;;;;;;7.55;4.43;;;15.20;83.30;;;;;;5047970;28;20174;-73
2023/08/06 01:56:35;;;;;;;8.43;4.75;;;15.20;83.40;;;;;;5069470;28;20049;-73
2023/08/06 01:59:02;;;;;;;8.77;4.75;;;15.20;83.40;;;;;;5054949;28;20053;-72
2023/08/06 02:05:07;;;;;;;8.35;4.40;;;15.10;83.50;;;;;;5007261;28;20061;-73
2023/08/06 02:07:33;;;;;;;7.00;4.47;;;15.10;83.40;;;;;;4989269;28;20054;-73
2023/08/06 02:10:02;;;;;;;9.95;4.40;;;15.10;83.40;;;;;;4975530;28;20050;-73
2023/08/06 02:12:29;;;;;;;7.97;4.30;;;15.20;83.40;;;;;;5015418;28;20094;-73
2023/08/06 02:14:55;;;;;;;7.77;4.77;;;15.20;83.50;;;;;;4991429;28;20516;-73
2023/08/06 02:17:22;;;;;;;8.07;4.93;;;15.20;83.50;;;;;;4986395;28;20121;-72
2023/08/06 02:19:49;;;;;;;8.50;4.75;;;15.20;83.40;;;;;;5008792;28;21129;-73
2023/08/06 02:22:16;;;;;;;7.78;4.82;;;15.20;83.50;;;;;;5007526;28;20065;-72
2023/08/06 02:24:43;;;;;;;7.72;4.82;;;15.20;83.40;;;;;;4992961;28;20065;-73
2023/08/06 02:27:12;;;;;;;8.40;4.70;;;15.20;83.40;;;;;;4999194;28;20053;-73
2023/08/06 02:29:41;;;;;;;7.03;4.25;;;15.20;83.50;;;;;;5002404;28;20050;-72
2023/08/06 02:32:08;;;;;;;8.30;4.55;;;15.20;83.50;;;;;;4999042;28;20057;-73
2023/08/06 02:34:35;;;;;;;7.40;4.72;;;15.20;83.50;;;;;;5001346;28;20141;-73
2023/08/06 02:37:02;;;;;;;8.52;5.07;;;15.20;83.50;;;;;;4987635;28;20141;-73
2023/08/06 02:39:29;;;;;;;7.53;4.53;;;15.20;83.40;;;;;;4997982;28;20059;-73
2023/08/06 02:41:58;;;;;;;8.98;4.68;;;15.20;83.40;;;;;;4989387;28;20091;-72
2023/08/06 02:44:29;;;;;;;8.88;4.68;;;15.30;83.40;;;;;;5000289;28;20060;-73
2023/08/06 02:46:56;;;;;;;7.18;4.57;;;15.30;83.40;;;;;;5004631;28;20663;-72
2023/08/06 02:49:23;;;;;;;9.93;5.03;;;15.30;83.40;;;;;;5010566;28;20042;-73
2023/08/06 02:51:50;;;;;;;9.20;4.97;;;15.30;83.40;;;;;;4974921;28;20140;-73
2023/08/06 02:54:17;;;;;;;7.28;4.53;;;15.30;83.40;;;;;;4994764;28;20520;-73
2023/08/06 02:56:45;;;;;;;8.15;5.07;;;15.30;83.40;;;;;;4982356;28;20137;-73
2023/08/06 02:59:18;;;;;;;8.60;5.18;;;15.30;83.40;;;;;;4999838;28;20094;-73
2023/08/06 03:02:02;;;;;;;8.02;4.63;;;15.30;83.40;;;;;;5000109;28;20105;-73
2023/08/06 03:04:38;;;;;;;7.77;4.67;;;15.30;83.40;;;;;;4989319;28;20101;-73
2023/08/06 03:07:06;;;;;;;8.75;4.97;;;15.30;83.40;;;;;;4980118;28;20684;-72
2023/08/06 03:09:41;;;;;;;7.47;4.82;;;15.30;83.40;;;;;;4996881;28;20450;-72
2023/08/06 03:12:09;;;;;;;9.55;5.25;;;15.30;83.50;;;;;;4972472;28;20051;-73
2023/08/06 03:14:37;;;;;;;7.50;4.93;;;15.30;83.50;;;;;;4997827;28;20046;-73
2023/08/06 03:17:08;;;;;;;8.67;5.13;;;15.30;83.50;;;;;;4996093;28;20055;-73
2023/08/06 03:19:34;;;;;;;7.90;5.03;;;15.30;83.50;;;;;;4991096;28;20658;-73
2023/08/06 03:22:02;;;;;;;8.55;5.40;;;15.30;83.50;;;;;;4973835;28;20050;-73
2023/08/06 03:24:30;;;;;;;8.68;5.05;;;15.30;83.40;;;;;;4990390;28;20072;-73
2023/08/06 03:26:57;;;;;;;7.85;5.18;;;15.30;83.50;;;;;;4990494;28;20132;-72
2023/08/06 03:29:25;;;;;;;8.30;5.10;;;15.30;83.40;;;;;;4973514;28;20053;-73
2023/08/06 03:31:53;;;;;;;7.75;5.20;;;15.30;83.40;;;;;;4988736;28;20066;-73
2023/08/06 03:34:22;;;;;;;8.18;4.78;;;15.30;83.40;;;;;;4994063;28;20053;-73
2023/08/06 03:36:50;;;;;;;8.93;4.80;;;15.30;83.40;;;;;;5000369;28;20054;-73
2023/08/06 03:39:17;;;;;;;7.25;4.80;;;15.30;83.30;;;;;;4983226;28;20208;-72
2023/08/06 03:41:44;;;;;;;8.60;5.20;;;15.30;83.30;;;;;;4989479;28;20051;-73
2023/08/06 03:44:11;;;;;;;10.43;5.07;;;15.30;83.20;;;;;;4989865;28;20515;-73
2023/08/06 03:46:38;;;;;;;8.32;5.03;;;15.30;83.20;;;;;;4990030;28;20054;-73
2023/08/06 03:49:07;;;;;;;8.52;5.32;;;15.30;83.20;;;;;;4990082;28;20061;-73
2023/08/06 03:51:36;;;;;;;7.82;4.82;;;15.30;83.10;;;;;;4987715;28;20050;-73
2023/08/06 03:54:03;;;;;;;9.20;5.23;;;15.30;83.00;;;;;;4971236;28;20121;-73
2023/08/06 03:56:31;;;;;;;8.43;5.10;;;15.30;83.00;;;;;;5010739;28;20057;-73
2023/08/06 03:58:57;;;;;;;8.07;5.07;;;15.30;82.90;;;;;;5001042;28;20058;-73
2023/08/06 04:01:25;;;;;;;9.63;5.10;;;15.30;82.80;;;;;;4979567;28;20492;-73
2023/08/06 04:03:53;;;;;;;9.65;4.97;;;15.30;82.80;;;;;;4995277;28;20066;-73
2023/08/06 04:06:20;;;;;;;8.23;5.33;;;15.30;82.70;;;;;;4989758;28;20050;-73
2023/08/06 04:08:48;;;;;;;7.72;4.72;;;15.30;82.70;;;;;;4998843;28;20050;-73
2023/08/06 04:11:15;;;;;;;8.57;5.22;;;15.30;82.70;;;;;;4981419;28;20066;-73
2023/08/06 04:13:44;;;;;;;9.00;5.10;;;15.30;82.60;;;;;;5014108;28;20518;-72
2023/08/06 04:16:11;;;;;;;8.98;5.25;;;15.30;82.70;;;;;;4975155;28;20057;-73
2023/08/06 04:18:38;;;;;;;9.97;5.40;;;15.30;82.70;;;;;;5017896;28;20050;-73
2023/08/06 04:21:05;;;;;;;9.32;5.20;;;15.30;82.70;;;;;;5001053;28;20170;-73
2023/08/06 04:23:32;;;;;;;9.13;5.47;;;15.30;82.70;;;;;;5005026;28;20149;-73
2023/08/06 04:26:04;;;;;;;7.80;5.13;;;15.30;82.80;;;;;;5012965;28;20055;-73
2023/08/06 04:28:34;;;;;;;9.15;5.47;;;15.30;82.80;;;;;;4992064;28;20499;-73
2023/08/06 04:31:01;;;;;;;9.00;5.27;;;15.30;82.90;;;;;;4997073;28;20507;-73
2023/08/06 04:33:31;;;;;;;9.43;5.40;;;15.30;82.90;;;;;;4992721;28;20058;-73
2023/08/06 04:36:01;;;;;;;8.32;5.40;;;15.30;82.90;;;;;;4994448;28;20054;-72
2023/08/06 04:38:28;;;;;;;11.00;5.47;;;15.30;82.90;;;;;;4976233;28;20050;-72
2023/08/06 04:40:55;;;;;;;9.23;5.43;;;15.30;83.00;;;;;;4988641;28;20440;-73
2023/08/06 04:43:25;;;;;;;9.70;5.73;;;15.30;82.90;;;;;;4977726;28;20046;-72
2023/08/06 04:45:54;;;;;;;9.32;5.70;;;15.30;83.00;;;;;;4985401;28;20400;-73
2023/08/06 04:48:21;;;;;;;9.52;5.68;;;15.30;83.00;;;;;;4992668;28;20594;-73
2023/08/06 04:50:49;;;;;;;10.68;6.10;;;15.30;83.10;;;;;;5009797;28;20070;-73
2023/08/06 04:53:17;;;;;;;8.50;5.70;;;15.30;83.10;;;;;;5000245;28;20056;-73
2023/08/06 04:55:44;;;;;;;10.97;6.40;;;15.30;83.20;;;;;;5001598;28;20679;-72
2023/08/06 04:58:11;;;;;;;10.73;6.45;;;15.30;83.30;;;;;;5000335;28;20057;-72
2023/08/06 05:00:40;;;;;;;9.85;6.38;;;15.20;83.40;;;;;;5016874;28;20137;-73
2023/08/06 05:03:09;;;;;;;10.38;6.10;;;15.30;83.50;;;;;;4992656;28;20050;-73
2023/08/06 05:05:36;;;;;;;9.75;6.35;;;15.30;83.60;;;;;;4993393;28;20057;-73
2023/08/06 05:08:04;;;;;;;10.43;6.40;;;15.30;83.70;;;;;;5014194;28;20134;-72
2023/08/06 05:10:31;;;;;;;9.50;6.32;;;15.30;83.70;;;;;;4998020;28;20045;-72
2023/08/06 05:12:58;;;;;;;9.65;5.75;;;15.20;83.80;;;;;;5000873;28;20057;-73
2023/08/06 05:15:26;;;;;;;10.68;6.32;;;15.20;83.90;;;;;;5012392;28;20050;-72
2023/08/06 05:17:54;;;;;;;10.10;6.40;;;15.30;84.00;;;;;;4990979;28;20536;-73
2023/08/06 05:20:21;;;;;;;9.27;6.40;;;15.20;84.00;;;;;;4993755;28;20054;-73
2023/08/06 05:22:49;;;;;;;9.65;6.40;;;15.20;84.00;;;;;;5007075;28;20058;-72
2023/08/06 05:25:16;;;;;;;10.20;6.10;;;15.30;84.00;;;;;;4987618;28;20057;-73
2023/08/06 05:27:43;;;;;;;9.45;6.18;;;15.30;84.10;;;;;;4999366;28;20042;-73
2023/08/06 05:30:11;;;;;;;9.68;6.05;;;15.30;84.10;;;;;;5008779;28;20057;-72
2023/08/06 05:32:37;;;;;;;9.57;6.17;;;15.30;84.20;;;;;;5009920;28;20058;-73
2023/08/06 05:35:07;;;;;;;10.85;6.40;;;15.30;84.20;;;;;;5009666;28;20108;-73
2023/08/06 05:37:34;;;;;;;10.10;6.38;;;15.30;84.20;;;;;;4996033;28;20568;-72
2023/08/06 05:40:01;;;;;;;9.20;6.32;;;15.30;84.20;;;;;;4997863;28;20042;-72
2023/08/06 05:42:28;;;;;;;10.38;6.68;;;15.30;84.30;;;;;;5009083;28;20121;-73
2023/08/06 05:44:55;;;;;;;11.10;6.70;;;15.40;84.40;;;;;;4999626;28;20046;-73
2023/08/06 05:47:22;;;;;;;11.93;6.70;;;15.40;84.40;;;;;;4991113;28;20050;-73
2023/08/06 05:49:49;;;;;;;10.25;6.97;;;15.40;84.60;;;;;;4988352;28;20571;-73
2023/08/06 05:52:17;;;;;;;9.50;6.90;;;15.40;84.60;;;;;;4989909;28;20050;-73
2023/08/06 05:54:44;;;;;;;9.15;6.43;;;15.40;84.70;;;;;;4981157;28;20051;-73
2023/08/06 05:57:11;;;;;;;10.50;6.57;;;15.50;84.70;;;;;;5008864;28;20052;-73
2023/08/06 05:59:38;;;;;;;12.23;7.50;;;15.50;84.90;;;;;;5009293;28;20512;-72
2023/08/06 06:02:05;;;;;;;11.82;8.30;;;15.50;85.00;;;;;;4997257;28;20568;-72
2023/08/06 06:04:32;;;;;;;12.45;7.93;;;15.50;85.10;;;;;;5001344;28;20081;-73
2023/08/06 06:06:59;;;;;;;12.18;7.80;;;15.50;85.20;;;;;;4999385;28;20152;-73
2023/08/06 06:09:27;;;;;;;12.97;8.13;;;15.50;85.10;;;;;;5015448;28;20042;-73
2023/08/06 06:11:54;;;;;;;12.10;7.90;;;15.60;85.10;;;;;;5006838;28;20055;-73
2023/08/06 06:14:21;;;;;;;11.85;7.80;;;15.60;85.10;;;;;;4991061;28;20664;-73
2023/08/06 06:16:48;;;;;;;12.73;8.18;;;15.60;85.00;;;;;;5001048;28;20494;-73
2023/08/06 06:19:15;;;;;;;14.25;8.55;;;15.60;85.00;;;;;;5008639;28;20142;-72
2023/08/06 06:21:42;;;;;;;12.80;7.97;;;15.60;85.00;;;;;;4999292;28;20054;-73
2023/08/06 06:24:09;;;;;;;16.00;8.88;;;15.60;84.90;;;;;;4996581;28;20046;-73
2023/08/06 06:26:37;;;;;;;13.77;8.45;;;15.60;84.90;;;;;;5008671;28;20073;-73
2023/08/06 06:29:04;;;;;;;13.88;8.45;;;15.60;84.90;;;;;;4999636;28;20038;-73
2023/08/06 06:31:31;;;;;;;13.27;8.55;;;15.60;84.90;;;;;;5009304;28;20499;-73
2023/08/06 06:33:58;;;;;;;12.67;8.20;;;15.60;84.90;;;;;;5008891;28;20058;-73
2023/08/06 06:36:25;;;;;;;14.68;8.20;;;15.60;85.00;;;;;;4993143;28;20066;-72
2023/08/06 06:38:52;;;;;;;12.75;8.20;;;15.60;85.00;;;;;;4988354;28;20591;-73
2023/08/06 06:41:19;;;;;;;12.77;8.18;;;15.60;85.10;;;;;;5006306;28;20439;-72
2023/08/06 06:43:47;;;;;;;11.82;7.50;;;15.60;85.10;;;;;;4988768;28;20054;-73
2023/08/06 06:46:14;;;;;;;14.27;7.80;;;15.60;85.10;;;;;;4987895;28;20576;-73
2023/08/06 06:48:41;;;;;;;11.10;7.63;;;15.60;85.10;;;;;;4988594;28;20061;-72
2023/08/06 06:51:08;;;;;;;11.35;7.47;;;15.60;85.00;;;;;;5006081;28;20651;-73
2023/08/06 06:53:34;;;;;;;10.48;7.55;;;15.60;85.10;;;;;;5006108;28;20050;-73
2023/08/06 06:56:03;;;;;;;10.48;6.68;;;15.70;85.20;;;;;;5009732;28;20133;-72
2023/08/06 06:58:30;;;;;;;11.37;7.37;;;15.70;85.30;;;;;;4984408;28;20121;-73
2023/08/06 07:00:59;;;;;;;10.98;7.32;;;15.70;85.30;;;;;;4990246;28;20054;-72
2023/08/06 07:03:26;;;;;;;11.32;7.30;;;15.80;85.40;;;;;;4988209;28;20376;-73
2023/08/06 07:05:53;;;;;;;9.73;6.70;;;15.80;85.40;;;;;;5007162;28;20152;-73
2023/08/06 07:08:19;;;;;;;8.98;6.35;;;15.80;85.40;;;;;;4990917;28;20058;-72
2023/08/06 07:10:46;;;;;;;11.07;6.83;;;15.80;85.40;;;;;;4996732;28;20146;-73
2023/08/06 07:13:13;;;;;;;10.55;6.90;;;15.80;85.40;;;;;;4995100;28;20054;-73
2023/08/06 07:15:40;;;;;;;11.95;6.90;;;15.80;85.40;;;;;;5008351;28;20889;-73
2023/08/06 07:18:09;;;;;;;11.40;7.18;;;15.90;85.40;;;;;;4986752;28;20126;-73
2023/08/06 07:20:36;;;;;;;11.18;7.32;;;15.90;85.40;;;;;;4994097;28;20046;-73
2023/08/06 07:23:02;;;;;;;10.23;7.43;;;16.00;85.40;;;;;;5006646;28;20051;-73
2023/08/06 07:25:29;;;;;;;10.60;7.28;;;16.00;85.30;;;;;;4985735;28;20097;-73
2023/08/06 07:27:57;;;;;;;10.65;7.03;;;16.00;85.20;;;;;;4997427;28;20050;-73
2023/08/06 07:30:24;;;;;;;11.35;7.10;;;16.00;85.20;;;;;;4996477;28;20095;-72
2023/08/06 07:32:51;;;;;;;11.35;7.22;;;16.00;85.20;;;;;;4991754;28;20061;-73
2023/08/06 07:35:19;;;;;;;10.53;7.03;;;16.00;85.20;;;;;;5006278;28;20062;-73
2023/08/06 07:37:46;;;;;;;10.88;7.25;;;16.00;85.20;;;;;;4989922;28;20070;-73
2023/08/06 07:40:13;;;;;;;10.35;6.60;;;16.00;85.20;;;;;;4989810;28;20046;-73
2023/08/06 07:42:40;;;;;;;9.35;6.80;;;16.10;85.30;;;;;;5010915;28;21015;-74
2023/08/06 07:45:09;;;;;;;11.38;7.32;;;16.10;85.30;;;;;;4991999;28;20152;-73
2023/08/06 07:47:36;;;;;;;13.00;8.00;;;16.10;85.20;;;;;;5010742;28;20109;-73
2023/08/06 07:50:03;;;;;;;10.35;7.35;;;16.10;85.30;;;;;;4982527;28;20047;-73
2023/08/06 07:52:32;;;;;;;10.02;6.75;;;16.20;85.10;;;;;;4992687;28;20416;-73
2023/08/06 07:55:00;;;;;;;10.52;7.38;;;16.20;85.20;;;;;;4992541;28;20058;-73
2023/08/06 07:57:28;;;;;;;11.45;7.35;;;16.20;85.10;;;;;;4991773;28;20047;-73
2023/08/06 07:59:55;;;;;;;11.40;7.10;;;16.20;85.20;;;;;;5007056;28;20058;-73
2023/08/06 08:02:22;;;;;;;10.05;7.13;;;16.30;85.20;;;;;;5009007;28;20046;-73
2023/08/06 08:04:49;;;;;;;10.82;6.72;;;16.30;85.20;;;;;;4990099;28;20113;-73
2023/08/06 08:07:16;;;;;;;9.73;6.43;;;16.40;85.30;;;;;;5008463;28;20054;-73
2023/08/06 08:09:45;;;;;;;10.10;6.75;;;16.40;85.30;;;;;;4991934;28;20060;-73
2023/08/06 08:12:12;;;;;;;11.00;7.33;;;16.40;85.20;;;;;;4974950;28;20047;-73
2023/08/06 08:14:39;;;;;;;10.05;6.90;;;16.40;85.20;;;;;;4991395;28;20050;-73
2023/08/06 08:17:07;;;;;;;10.35;7.15;;;16.40;85.20;;;;;;4992789;28;20056;-73
2023/08/06 08:19:34;;;;;;;9.20;6.90;;;16.40;85.20;;;;;;5008279;28;20133;-73
2023/08/06 08:22:01;;;;;;;10.77;6.45;;;16.50;85.20;;;;;;4992842;28;20103;-73
2023/08/06 08:24:29;;;;;;;10.50;6.70;;;16.50;85.20;;;;;;4992403;28;20049;-73
2023/08/06 08:26:58;;;;;;;9.52;6.40;;;16.50;84.90;;;;;;5010248;28;20578;-73
2023/08/06 08:29:25;;;;;;;9.35;6.75;;;16.50;85.00;;;;;;5008226;28;20050;-73
2023/08/06 08:31:52;;;;;;;8.60;6.00;;;16.60;85.00;;;;;;5008553;28;20058;-73
2023/08/06 08:34:20;;;;;;;10.15;6.82;;;16.60;85.00;;;;;;5009501;28;20520;-73
2023/08/06 08:36:49;;;;;;;9.30;6.33;;;16.60;85.10;;;;;;5007629;28;20043;-73
2023/08/06 08:39:16;;;;;;;8.88;6.18;;;16.70;85.00;;;;;;4989666;28;20045;-73
2023/08/06 08:41:43;;;;;;;9.15;6.60;;;16.70;85.10;;;;;;4992447;28;20081;-73
2023/08/06 08:44:14;;;;;;;9.10;6.38;;;16.70;85.20;;;;;;4992054;28;20046;-73
2023/08/06 08:46:42;;;;;;;9.10;6.63;;;16.80;85.20;;;;;;4990836;28;20060;-72
2023/08/06 08:49:09;;;;;;;9.20;5.70;;;16.80;85.10;;;;;;4992188;28;20133;-72
2023/08/06 08:51:37;;;;;;;8.43;6.07;;;16.80;85.00;;;;;;4992125;28;20583;-73
2023/08/06 08:54:04;;;;;;;8.88;6.10;;;16.90;85.00;;;;;;5007323;28;20053;-72
2023/08/06 08:56:32;;;;;;;8.32;5.60;;;16.90;85.00;;;;;;5016310;28;20042;-72
2023/08/06 08:58:59;;;;;;;8.25;5.75;;;16.90;85.00;;;;;;5019413;28;20058;-72
2023/08/06 09:01:29;;;;;;;7.90;5.10;;;16.90;84.80;;;;;;5009534;28;20436;-72
2023/08/06 09:03:58;;;;;;;8.60;5.40;;;17.00;84.80;;;;;;5000365;28;20129;-73
2023/08/06 09:06:27;;;;;;;8.55;5.30;;;17.00;84.70;;;;;;5006408;28;20047;-74
2023/08/06 09:09:08;;;;;;;7.57;4.88;;;17.00;84.70;;;;;;5009303;28;20054;-75
2023/08/06 09:11:42;;;;;;;7.72;5.28;;;17.00;84.60;;;;;;4994459;28;20056;-76
2023/08/06 09:14:09;;;;;;;7.70;5.10;;;17.10;84.40;;;;;;5008828;28;20744;-76
2023/08/06 09:16:37;;;;;;;8.57;5.20;;;17.20;84.30;;;;;;4987018;28;20521;-75
2023/08/06 09:19:12;;;;;;;8.05;5.30;;;17.20;84.30;;;;;;5007763;28;20057;-74
2023/08/06 09:21:39;;;;;;;7.20;4.95;;;17.20;84.20;;;;;;4990452;28;20609;-75
2023/08/06 09:24:10;;;;;;;6.95;4.60;;;17.20;83.90;;;;;;4973919;28;20464;-75
2023/08/06 09:26:38;;;;;;;7.70;4.67;;;17.20;84.10;;;;;;5003258;28;20117;-75
2023/08/06 09:29:07;;;;;;;7.97;5.10;;;17.30;84.10;;;;;;4990335;28;20054;-75
2023/08/06 09:31:40;;;;;;;8.27;5.00;;;17.30;84.10;;;;;;4988234;28;20054;-75
2023/08/06 09:34:11;;;;;;;8.23;4.85;;;17.40;84.20;;;;;;5006694;28;20173;-75
2023/08/06 09:36:41;;;;;;;7.60;4.82;;;17.40;84.10;;;;;;5002239;28;20129;-76
2023/08/06 09:39:15;;;;;;;6.77;4.47;;;17.50;84.00;;;;;;4991035;28;20137;-75
2023/08/06 09:41:42;;;;;;;6.85;4.80;;;17.50;83.80;;;;;;4989171;28;20058;-75
2023/08/06 09:44:17;;;;;;;6.88;4.97;;;17.50;83.80;;;;;;5002483;28;20142;-75
2023/08/06 09:46:44;;;;;;;7.38;5.10;;;17.50;83.80;;;;;;4987882;28;20482;-75
2023/08/06 09:49:12;;;;;;;7.70;5.05;;;17.50;83.60;;;;;;5003963;28;20054;-75
2023/08/06 09:51:40;;;;;;;8.40;4.50;;;17.60;83.70;;;;;;5002205;28;20070;-76
2023/08/06 09:54:09;;;;;;;7.57;4.90;;;17.60;83.80;;;;;;4988237;28;20084;-75
2023/08/06 09:56:37;;;;;;;6.82;4.53;;;17.60;83.50;;;;;;4991604;28;20055;-75
2023/08/06 09:59:06;;;;;;;7.32;4.80;;;17.70;83.50;;;;;;5005602;28;20097;-75
2023/08/06 10:01:34;;;;;;;6.63;4.88;;;17.70;83.50;;;;;;4983364;28;20077;-74
2023/08/06 10:04:02;;;;;;;6.43;4.43;;;17.80;83.40;;;;;;4992906;28;20059;-75
2023/08/06 10:06:34;;;;;;;7.57;4.00;;;17.80;83.70;;;;;;4997432;28;20101;-75
2023/08/06 10:09:01;;;;;;;7.28;5.00;;;17.80;83.20;;;;;;4988584;28;20058;-75
2023/08/06 10:11:30;;;;;;;7.07;4.57;;;17.90;82.90;;;;;;4987647;28;20120;-76
2023/08/06 10:14:03;;;;;;;7.20;4.63;;;17.90;83.00;;;;;;5008168;28;20050;-75
2023/08/06 10:16:32;;;;;;;6.77;4.53;;;18.00;82.70;;;;;;5009279;28;20046;-74
2023/08/06 10:19:00;;;;;;;6.75;4.78;;;18.00;82.90;;;;;;5008161;28;20058;-75
2023/08/06 10:21:29;;;;;;;7.07;5.15;;;18.00;83.00;;;;;;4986604;28;20116;-75
2023/08/06 10:23:58;;;;;;;6.60;4.53;;;18.00;82.70;;;;;;4990324;28;20512;-75
2023/08/06 10:26:27;;;;;;;6.20;4.90;;;18.10;82.80;;;;;;5007707;28;20567;-74
2023/08/06 10:28:54;;;;;;;7.33;5.00;;;18.10;82.70;;;;;;4987808;28;20057;-74
2023/08/06 10:31:42;;;;;;;6.40;4.68;;;18.10;82.80;;;;;;5005298;28;20129;-74
2023/08/06 10:34:09;;;;;;;7.65;4.70;;;18.20;82.90;;;;;;5007011;28;20062;-74
2023/08/06 10:36:36;;;;;;;5.55;4.18;;;18.20;83.00;;;;;;4989410;28;20057;-74
2023/08/06 10:39:05;;;;;;;6.45;4.57;;;18.30;83.20;;;;;;4987765;28;20061;-74
2023/08/06 10:41:33;;;;;;;5.47;3.87;;;18.30;83.00;;;;;;5006586;28;20483;-74
2023/08/06 10:44:08;;;;;;;5.45;3.55;;;18.40;83.10;;;;;;4990421;28;20149;-74
2023/08/06 10:46:35;;;;;;;6.38;3.88;;;18.50;82.90;;;;;;5007288;28;20055;-74
2023/08/06 10:49:03;;;;;;;6.30;4.05;;;18.50;82.70;;;;;;4989301;28;20140;-74
2023/08/06 10:51:30;;;;;;;5.45;3.50;;;18.60;82.60;;;;;;4988435;28;20204;-74
2023/08/06 10:53:58;;;;;;;4.87;3.20;;;18.60;82.50;;;;;;4986832;28;20049;-74
2023/08/06 10:56:27;;;;;;;4.70;3.30;;;18.70;82.60;;;;;;5004968;28;21338;-75
2023/08/06 10:58:57;;;;;;;5.65;3.10;;;18.80;82.50;;;;;;4996338;28;20529;-75
2023/08/06 11:01:24;;;;;;;4.70;2.83;;;18.80;82.40;;;;;;4992312;28;20053;-75
2023/08/06 11:03:53;;;;;;;4.82;3.00;;;18.90;81.80;;;;;;4993350;28;20133;-75
2023/08/06 11:06:21;;;;;;;4.47;2.43;;;18.90;81.60;;;;;;4989186;28;20047;-76
2023/08/06 11:08:49;;;;;;;5.45;2.60;;;19.00;81.30;;;;;;5006617;28;20064;-75
2023/08/06 11:11:18;;;;;;;4.15;2.38;;;19.10;81.00;;;;;;4987307;28;20058;-75
2023/08/06 11:13:48;;;;;;;4.82;2.90;;;19.10;80.80;;;;;;4995971;28;20528;-75
2023/08/06 11:16:17;;;;;;;6.75;2.90;;;19.20;80.50;;;;;;4980360;28;20050;-75
2023/08/06 11:18:44;;;;;;;4.73;3.10;;;19.20;80.10;;;;;;4999075;28;20104;-75
2023/08/06 11:21:12;;;;;;;5.20;2.72;;;19.30;80.10;;;;;;4983700;28;20057;-75
2023/08/06 11:23:42;;;;;;;5.28;2.42;;;19.30;79.90;;;;;;4973656;28;20057;-74
2023/08/06 11:26:09;;;;;;;4.30;2.15;;;19.40;79.30;;;;;;5008414;28;20050;-75
2023/08/06 11:28:37;;;;;;;4.35;2.40;;;19.40;79.30;;;;;;4991058;28;20050;-75
2023/08/06 11:31:05;;;;;;;4.70;2.40;;;19.50;79.10;;;;;;5005082;28;20059;-75
2023/08/06 11:33:32;;;;;;;4.80;2.30;;;19.50;79.20;;;;;;4990615;28;20058;-75
2023/08/06 11:36:00;;;;;;;4.45;1.92;;;19.50;78.50;;;;;;4988514;28;20058;-75
2023/08/06 11:38:30;;;;;;;4.00;1.80;;;19.60;78.60;;;;;;4982621;28;20599;-75
2023/08/06 11:40:57;;;;;;;4.72;1.90;;;19.70;78.40;;;;;;5004308;28;20605;-76
2023/08/06 11:43:24;;;;;;;5.00;2.27;;;19.70;78.00;;;;;;5005099;28;20054;-76
2023/08/06 11:45:53;;;;;;;4.50;1.80;;;19.80;77.90;;;;;;5006188;28;20130;-76
2023/08/06 11:48:21;;;;;;;3.85;1.73;;;19.90;77.60;;;;;;4990830;28;20054;-76
2023/08/06 11:50:48;;;;;;;3.90;2.00;;;19.90;76.80;;;;;;4977324;28;20050;-76
2023/08/06 11:53:16;;;;;;;3.70;1.90;;;19.90;76.50;;;;;;4963621;28;20583;-75
2023/08/06 11:55:43;;;;;;;4.43;2.03;;;19.90;76.00;;;;;;5003561;28;20451;-75
2023/08/06 11:58:12;;;;;;;3.97;1.90;;;20.00;76.20;;;;;;5001497;28;20170;-76
2023/08/06 12:00:40;;;;;;;4.32;2.13;;;20.00;76.00;;;;;;5005087;28;20138;-76
2023/08/06 12:03:07;;;;;;;4.18;1.90;;;20.00;76.00;;;;;;4991320;28;20054;-75
2023/08/06 12:05:35;;;;;;;3.50;1.48;;;20.00;75.40;;;;;;5007294;28;20484;-75
2023/08/06 12:08:03;;;;;;;4.00;1.93;;;20.00;74.70;;;;;;5006532;28;20061;-75
2023/08/06 12:10:31;;;;;;;3.80;1.80;;;20.00;74.60;;;;;;5003582;28;20169;-76
2023/08/06 12:12:58;;;;;;;3.97;1.77;;;20.00;74.10;;;;;;4988043;28;20050;-75
2023/08/06 12:15:25;;;;;;;3.63;1.70;;;20.00;74.10;;;;;;5006301;28;20054;-75
2023/08/06 12:17:52;;;;;;;4.43;1.70;;;20.00;74.10;;;;;;4988125;28;20055;-75
2023/08/06 12:20:19;;;;;;;4.50;1.60;;;20.00;73.80;;;;;;4971512;28;20165;-76
2023/08/06 12:22:48;;;;;;;4.95;1.83;;;20.00;74.00;;;;;;4987328;28;20121;-76
2023/08/06 12:25:15;;;;;;;3.90;1.60;;;20.00;73.20;;;;;;4989834;28;20038;-76
2023/08/06 12:27:44;;;;;;;3.90;1.60;;;20.00;73.40;;;;;;4990476;28;20359;-75
2023/08/06 12:30:11;;;;;;;4.43;1.60;;;20.00;73.40;;;;;;5003216;28;20109;-76
2023/08/06 12:32:39;;;;;;;3.70;1.53;;;20.00;73.10;;;;;;5012448;28;20104;-76
2023/08/06 12:35:08;;;;;;;3.75;1.50;;;20.00;73.10;;;;;;5028330;28;20052;-75
2023/08/06 12:37:35;;;;;;;3.78;1.63;;;20.00;72.80;;;;;;5019601;28;20129;-76
2023/08/06 12:40:03;;;;;;;4.03;1.70;;;20.00;73.00;;;;;;4992822;28;20480;-75
2023/08/06 12:42:30;;;;;;;4.50;1.48;;;20.00;73.10;;;;;;4992908;28;20080;-75
2023/08/06 12:44:57;;;;;;;4.60;1.63;;;20.00;73.00;;;;;;4993016;28;20472;-76
2023/08/06 12:47:24;;;;;;;3.33;1.60;;;20.00;73.00;;;;;;5008444;28;20057;-75
2023/08/06 12:49:51;;;;;;;3.53;1.50;;;20.00;72.80;;;;;;4992754;28;20060;-75